Time;durP1;ratioP1;P1;durP2;ratioP2;P2;SDS_P1;SDS_P2;PMS_P1;PMS_P2;Temp;Humidity;BMP_temperature;BMP_pressure;BME280_temperature;BME280_humidity;BME280_pressure;Samples;Min_cycle;Max_cycle;Signal;HPM_P1;HPM_P2
2020/12/30 00:01:20;;;;;;;2.80;2.37;;;2.50;57.10;;;;;;5014583;28;37353;-80
2020/12/30 00:03:47;;;;;;;4.60;4.10;;;2.50;57.20;;;;;;5034595;28;37377;-80
2020/12/30 00:06:17;;;;;;;5.63;3.97;;;2.50;57.10;;;;;;5034837;28;40492;-81
2020/12/30 00:08:44;;;;;;;2.90;2.60;;;2.50;57.20;;;;;;5047346;28;39186;-80
2020/12/30 00:11:11;;;;;;;2.97;2.60;;;2.50;57.00;;;;;;5036367;28;38625;-80
2020/12/30 00:13:38;;;;;;;2.47;2.20;;;2.50;57.10;;;;;;5041957;28;37072;-80
2020/12/30 00:16:05;;;;;;;2.90;2.10;;;2.50;57.20;;;;;;5024427;28;38691;-81
2020/12/30 00:18:33;;;;;;;2.67;2.13;;;2.50;57.10;;;;;;5026993;28;38812;-81
2020/12/30 00:21:01;;;;;;;2.80;2.20;;;2.50;57.20;;;;;;5038052;28;37748;-80
2020/12/30 00:23:28;;;;;;;2.40;2.00;;;2.50;57.30;;;;;;5030730;28;37082;-80
2020/12/30 00:25:55;;;;;;;2.53;2.33;;;2.60;57.40;;;;;;5043209;28;39611;-80
2020/12/30 00:28:22;;;;;;;3.17;2.27;;;2.60;57.20;;;;;;5037339;28;37666;-80
2020/12/30 00:30:49;;;;;;;2.40;2.20;;;2.60;57.20;;;;;;5052579;28;37695;-81
2020/12/30 00:33:16;;;;;;;3.50;2.50;;;2.60;57.20;;;;;;5033635;28;37567;-80
2020/12/30 00:35:46;;;;;;;2.80;2.20;;;2.70;57.00;;;;;;5043005;28;40052;-80
2020/12/30 00:38:13;;;;;;;3.10;2.10;;;2.70;56.80;;;;;;5033783;28;40800;-80
2020/12/30 00:40:40;;;;;;;3.83;2.00;;;2.80;56.70;;;;;;5025794;28;38116;-80
2020/12/30 00:43:10;;;;;;;2.43;2.00;;;2.70;56.60;;;;;;5011582;28;36644;-80
2020/12/30 00:45:37;;;;;;;2.90;2.10;;;2.70;56.60;;;;;;5033870;28;39709;-81
2020/12/30 00:48:07;;;;;;;2.53;2.13;;;2.80;56.60;;;;;;5005848;28;39126;-82
2020/12/30 00:50:34;;;;;;;2.27;2.00;;;2.80;56.50;;;;;;5031664;28;38152;-82
2020/12/30 00:53:03;;;;;;;3.10;2.43;;;2.70;56.50;;;;;;5024897;28;36292;-82
2020/12/30 00:55:32;;;;;;;3.10;2.10;;;2.70;56.50;;;;;;5034658;28;38800;-82
2020/12/30 00:58:19;;;;;;;2.20;1.80;;;2.70;56.50;;;;;;5033680;28;37773;-82
2020/12/30 01:00:47;;;;;;;3.43;2.37;;;2.70;56.60;;;;;;5024837;28;37637;-82
2020/12/30 01:03:52;;;;;;;4.30;2.30;;;2.80;56.40;;;;;;4989762;28;37307;-81
2020/12/30 01:06:19;;;;;;;2.60;1.70;;;2.80;56.30;;;;;;5010310;28;39586;-81
2020/12/30 01:08:47;;;;;;;2.33;2.00;;;2.80;56.30;;;;;;5039234;28;38296;-81
2020/12/30 01:11:14;;;;;;;2.63;2.30;;;2.80;56.20;;;;;;5040486;28;38002;-82
2020/12/30 01:13:43;;;;;;;5.00;2.50;;;2.80;56.30;;;;;;5046201;28;38272;-81
2020/12/30 01:16:11;;;;;;;6.07;4.80;;;2.80;56.40;;;;;;5033386;28;39648;-81
2020/12/30 01:18:38;;;;;;;9.50;5.90;;;2.90;57.40;;;;;;5031033;28;39831;-81
2020/12/30 01:21:05;;;;;;;8.93;6.03;;;3.00;56.90;;;;;;5025718;28;38466;-82
2020/12/30 01:23:32;;;;;;;8.53;6.40;;;3.00;57.60;;;;;;5029504;28;35650;-81
2020/12/30 01:26:01;;;;;;;11.00;7.63;;;3.10;57.00;;;;;;5031676;28;38579;-81
2020/12/30 01:28:30;;;;;;;10.83;7.53;;;3.10;56.60;;;;;;5031835;28;37828;-80
2020/12/30 01:30:57;;;;;;;11.87;8.60;;;3.20;56.50;;;;;;5026630;28;38414;-80
2020/12/30 01:33:27;;;;;;;12.87;7.83;;;3.30;56.30;;;;;;5032444;28;37542;-80
2020/12/30 01:35:54;;;;;;;13.40;8.57;;;3.20;56.00;;;;;;5032837;28;40747;-81
2020/12/30 01:38:23;;;;;;;11.07;8.50;;;3.30;55.90;;;;;;5030218;28;38500;-81
2020/12/30 01:40:54;;;;;;;11.97;8.83;;;3.20;55.70;;;;;;5031203;28;36913;-80
2020/12/30 01:43:24;;;;;;;11.20;9.67;;;3.10;55.60;;;;;;5029540;28;36038;-83
2020/12/30 01:45:53;;;;;;;13.00;9.03;;;3.10;55.70;;;;;;5015051;28;40994;-81
2020/12/30 01:48:23;;;;;;;15.33;10.13;;;3.10;55.80;;;;;;5032513;28;39576;-81
2020/12/30 01:51:40;;;;;;;9.83;7.60;;;3.00;56.10;;;;;;5028060;28;37995;-83
2020/12/30 01:54:41;;;;;;;10.50;8.33;;;2.90;56.30;;;;;;5030208;28;36883;-81
2020/12/30 01:57:42;;;;;;;12.13;7.37;;;2.90;56.20;;;;;;5031346;28;40877;-81
2020/12/30 02:04:40;;;;;;;10.77;6.97;;;2.90;56.30;;;;;;5025247;28;38753;-81
2020/12/30 02:11:41;;;;;;;11.27;7.50;;;2.80;56.40;;;;;;5013038;28;40109;-81
2020/12/30 02:21:50;;;;;;;10.07;8.37;;;2.50;56.10;;;;;;5013074;28;38107;-81
2020/12/30 02:31:40;;;;;;;10.77;8.13;;;2.10;56.50;;;;;;5054864;28;38756;-89
2020/12/30 02:38:42;;;;;;;11.23;7.67;;;1.90;57.80;;;;;;5044943;28;40178;-90
2020/12/30 02:45:39;;;;;;;12.27;8.13;;;1.80;58.40;;;;;;5052732;28;39327;-89
2020/12/30 02:48:41;;;;;;;10.13;7.30;;;1.80;58.80;;;;;;5027955;28;37046;-90
2020/12/30 02:54:46;;;;;;;12.23;7.80;;;1.90;59.20;;;;;;5045738;28;40125;-89
2020/12/30 02:57:41;;;;;;;9.20;6.80;;;1.80;59.30;;;;;;5000808;28;36439;-87
2020/12/30 03:00:42;;;;;;;9.67;7.20;;;1.90;59.60;;;;;;5016487;28;37334;-90
2020/12/30 03:03:09;;;;;;;9.33;6.57;;;1.90;59.50;;;;;;5038978;28;40235;-90
2020/12/30 03:09:42;;;;;;;11.80;7.93;;;1.90;59.40;;;;;;5037710;28;38655;-90
2020/12/30 03:12:40;;;;;;;9.60;7.73;;;2.00;59.60;;;;;;5035786;28;37337;-89
2020/12/30 03:15:41;;;;;;;9.10;7.10;;;2.00;59.60;;;;;;5037796;28;40178;-90
2020/12/30 03:25:32;;;;;;;12.60;7.53;;;2.20;59.40;;;;;;5034517;28;37522;-88
2020/12/30 03:27:59;;;;;;;11.73;7.83;;;2.10;59.00;;;;;;5019894;28;38745;-89
2020/12/30 03:30:26;;;;;;;10.93;8.27;;;2.00;58.70;;;;;;5037508;28;38948;-90
2020/12/30 03:32:54;;;;;;;9.10;8.10;;;1.80;58.80;;;;;;5020280;28;37711;-91
2020/12/30 03:35:24;;;;;;;11.30;8.10;;;1.70;58.80;;;;;;5038506;28;37992;-89
2020/12/30 03:37:55;;;;;;;12.13;9.00;;;1.60;58.80;;;;;;5019857;28;39830;-89
2020/12/30 03:40:22;;;;;;;15.87;8.77;;;1.50;58.90;;;;;;5026146;28;39606;-90
2020/12/30 03:42:50;;;;;;;12.70;10.03;;;1.50;58.90;;;;;;5037425;28;38644;-89
2020/12/30 03:45:17;;;;;;;12.30;9.37;;;1.40;59.00;;;;;;5057768;28;37616;-88
2020/12/30 03:47:44;;;;;;;13.37;10.40;;;1.30;59.40;;;;;;5052274;28;42317;-89
2020/12/30 03:50:14;;;;;;;11.60;8.80;;;1.20;59.80;;;;;;5038767;28;39465;-90
2020/12/30 03:52:41;;;;;;;10.13;9.00;;;1.30;60.10;;;;;;5019470;28;37882;-89
2020/12/30 03:55:08;;;;;;;14.97;8.77;;;1.30;60.00;;;;;;5011054;28;35757;-89
2020/12/30 03:57:37;;;;;;;15.30;9.43;;;1.30;60.30;;;;;;5027881;28;40669;-90
2020/12/30 04:00:05;;;;;;;10.00;8.30;;;1.30;60.40;;;;;;5036898;28;39788;-90
2020/12/30 04:02:39;;;;;;;15.90;10.20;;;1.30;60.70;;;;;;5035823;28;38826;-90
2020/12/30 04:05:06;;;;;;;13.03;9.20;;;1.30;60.30;;;;;;5036807;28;37187;-90
2020/12/30 04:07:33;;;;;;;13.57;9.50;;;1.30;60.40;;;;;;5040082;28;40216;-90
2020/12/30 04:10:00;;;;;;;14.17;9.80;;;1.20;60.40;;;;;;5020115;28;37790;-91
2020/12/30 04:12:27;;;;;;;14.23;10.37;;;1.20;60.30;;;;;;5037423;28;38884;-88
2020/12/30 04:14:54;;;;;;;13.67;9.97;;;1.10;60.10;;;;;;5039901;28;37953;-90
2020/12/30 04:17:22;;;;;;;14.17;10.00;;;1.00;60.00;;;;;;5050246;28;39723;-89
2020/12/30 04:19:49;;;;;;;14.73;9.73;;;0.90;60.10;;;;;;5053799;28;39732;-89
2020/12/30 04:22:16;;;;;;;12.00;8.93;;;0.80;60.30;;;;;;5055782;28;39493;-89
2020/12/30 04:24:43;;;;;;;13.13;9.73;;;0.70;60.50;;;;;;5052269;28;36811;-89
2020/12/30 04:27:10;;;;;;;13.30;9.80;;;0.70;60.70;;;;;;5044041;28;39815;-88
2020/12/30 04:29:37;;;;;;;14.23;9.90;;;0.60;60.70;;;;;;5034523;28;39593;-89
2020/12/30 04:32:04;;;;;;;13.83;9.43;;;0.60;61.20;;;;;;5048086;28;38254;-89
2020/12/30 04:34:32;;;;;;;13.43;9.20;;;0.60;61.20;;;;;;5040869;28;37994;-89
2020/12/30 04:37:01;;;;;;;11.77;8.90;;;0.50;61.10;;;;;;5039586;28;40748;-89
2020/12/30 04:39:28;;;;;;;16.50;8.60;;;0.40;61.30;;;;;;5037580;28;39131;-90
2020/12/30 04:41:58;;;;;;;11.43;9.20;;;0.40;61.50;;;;;;5019905;28;36900;-89
2020/12/30 04:44:30;;;;;;;14.90;10.20;;;0.40;61.90;;;;;;5044073;28;37066;-89
2020/12/30 04:46:58;;;;;;;13.33;10.33;;;0.40;62.10;;;;;;5049756;28;40110;-89
2020/12/30 04:49:25;;;;;;;12.07;9.10;;;0.30;61.90;;;;;;5038873;28;38690;-89
2020/12/30 04:51:54;;;;;;;14.80;10.50;;;0.30;62.00;;;;;;5048595;28;39422;-89
2020/12/30 04:54:22;;;;;;;11.00;9.53;;;0.30;62.20;;;;;;5059499;28;38511;-89
2020/12/30 04:56:58;;;;;;;12.47;9.60;;;0.30;62.50;;;;;;5052014;28;42565;-89
2020/12/30 04:59:29;;;;;;;14.57;9.40;;;0.30;62.60;;;;;;5036786;28;39561;-90
2020/12/30 05:02:22;;;;;;;10.60;8.77;;;0.30;62.30;;;;;;5015880;28;38727;-89
2020/12/30 05:04:49;;;;;;;11.57;8.83;;;0.30;62.50;;;;;;5016792;28;37193;-87
2020/12/30 05:07:19;;;;;;;13.87;9.60;;;0.20;62.70;;;;;;5022940;28;40054;-90
2020/12/30 05:09:46;;;;;;;11.13;9.10;;;0.20;62.80;;;;;;5033174;28;38105;-89
2020/12/30 05:12:15;;;;;;;14.60;8.87;;;0.20;62.90;;;;;;5034584;28;38104;-89
2020/12/30 05:14:42;;;;;;;14.17;9.10;;;0.20;63.00;;;;;;5034124;28;37264;-89
2020/12/30 05:17:11;;;;;;;12.70;9.10;;;0.20;63.20;;;;;;5034759;28;40753;-89
2020/12/30 05:19:39;;;;;;;15.33;10.03;;;0.20;63.20;;;;;;5030743;28;39628;-88
2020/12/30 05:22:06;;;;;;;13.77;10.03;;;0.20;63.30;;;;;;5033897;28;38313;-89
2020/12/30 05:24:34;;;;;;;10.70;9.30;;;0.30;63.60;;;;;;5017829;28;38463;-89
2020/12/30 05:27:01;;;;;;;11.30;9.00;;;0.30;63.70;;;;;;5010170;28;38980;-89
2020/12/30 05:29:28;;;;;;;12.13;9.97;;;0.30;63.70;;;;;;5015453;28;38326;-88
2020/12/30 05:31:56;;;;;;;11.90;9.77;;;0.40;63.90;;;;;;5031303;28;38953;-89
2020/12/30 05:34:24;;;;;;;13.63;8.73;;;0.50;64.10;;;;;;5013447;28;36222;-89
2020/12/30 05:36:52;;;;;;;11.27;9.07;;;0.60;64.40;;;;;;5033682;28;39783;-90
2020/12/30 05:39:28;;;;;;;14.43;9.90;;;0.60;64.20;;;;;;5029107;28;38782;-89
2020/12/30 05:42:11;;;;;;;12.30;9.10;;;0.70;64.30;;;;;;5032070;28;38552;-88
2020/12/30 05:44:39;;;;;;;15.63;8.67;;;0.80;64.40;;;;;;4997230;28;35413;-89
2020/12/30 05:47:10;;;;;;;11.70;8.20;;;0.80;64.30;;;;;;5002762;28;39156;-89
2020/12/30 05:49:37;;;;;;;11.63;8.17;;;0.80;64.30;;;;;;5022363;28;39599;-88
2020/12/30 05:52:20;;;;;;;9.17;7.57;;;0.70;63.80;;;;;;5030938;28;38731;-87
2020/12/30 05:54:52;;;;;;;10.93;7.80;;;0.70;63.70;;;;;;5015200;28;37168;-86
2020/12/30 05:57:30;;;;;;;11.50;7.97;;;0.60;63.40;;;;;;5020003;28;38610;-88
2020/12/30 05:59:59;;;;;;;8.60;6.90;;;0.50;63.30;;;;;;5029794;28;40227;-89
2020/12/30 06:02:30;;;;;;;10.07;7.97;;;0.40;63.20;;;;;;5030386;28;38167;-89
2020/12/30 06:05:12;;;;;;;11.03;7.83;;;0.40;63.10;;;;;;5030854;28;38138;-89
2020/12/30 06:07:40;;;;;;;9.93;7.97;;;0.30;63.00;;;;;;5028203;28;39631;-88
2020/12/30 06:10:12;;;;;;;11.20;7.93;;;0.30;63.00;;;;;;5032749;28;39876;-88
2020/12/30 06:12:44;;;;;;;10.70;7.63;;;0.20;63.10;;;;;;5032298;28;38747;-89
2020/12/30 06:15:14;;;;;;;10.03;7.37;;;0.20;63.30;;;;;;5032645;28;35953;-89
2020/12/30 06:17:51;;;;;;;8.80;7.87;;;0.20;63.20;;;;;;5014597;28;39469;-89
2020/12/30 06:20:22;;;;;;;9.27;7.43;;;0.20;63.10;;;;;;5014259;28;37632;-89
2020/12/30 06:22:57;;;;;;;11.07;7.40;;;0.10;63.10;;;;;;4997176;28;36260;-88
2020/12/30 06:25:26;;;;;;;10.60;7.57;;;0.10;63.10;;;;;;5033294;28;37425;-89
2020/12/30 06:27:54;;;;;;;12.07;7.80;;;0.10;62.90;;;;;;5035391;28;41152;-89
2020/12/30 06:30:22;;;;;;;14.70;8.90;;;0.10;63.00;;;;;;5043413;28;38946;-90
2020/12/30 06:32:50;;;;;;;12.00;8.17;;;0.00;63.00;;;;;;5048179;28;38601;-88
2020/12/30 06:35:28;;;;;;;8.37;7.33;;;0.00;63.10;;;;;;5033019;28;35809;-88
2020/12/30 06:37:55;;;;;;;9.80;8.00;;;-0.10;63.20;;;;;;5042824;28;39638;-89
2020/12/30 06:40:29;;;;;;;11.37;8.50;;;0.00;63.50;;;;;;5038560;28;39182;-89
2020/12/30 06:43:01;;;;;;;10.67;7.63;;;-0.10;63.50;;;;;;5018320;28;36692;-89
2020/12/30 06:45:55;;;;;;;8.80;6.50;;;-0.10;63.90;;;;;;5031863;28;36815;-88
2020/12/30 06:48:22;;;;;;;10.90;7.20;;;0.10;63.90;;;;;;4990442;28;38455;-88
2020/12/30 06:50:52;;;;;;;9.00;7.03;;;0.10;63.70;;;;;;5017447;28;38002;-88
2020/12/30 06:53:32;;;;;;;11.50;7.93;;;0.10;63.70;;;;;;5030073;28;38278;-88
2020/12/30 06:56:01;;;;;;;9.73;7.30;;;0.00;63.70;;;;;;5034734;28;37405;-88
2020/12/30 06:58:48;;;;;;;11.00;7.20;;;0.10;63.90;;;;;;5036637;28;40303;-89
2020/12/30 07:01:17;;;;;;;9.00;6.63;;;0.10;63.90;;;;;;5035156;28;39663;-88
2020/12/30 07:03:45;;;;;;;11.57;7.40;;;0.10;63.60;;;;;;5038876;28;38642;-89
2020/12/30 07:06:32;;;;;;;10.10;7.67;;;0.10;63.90;;;;;;5023025;28;35896;-89
2020/12/30 07:09:01;;;;;;;12.43;8.03;;;0.10;63.60;;;;;;5035967;28;39529;-89
2020/12/30 07:11:43;;;;;;;9.90;7.43;;;0.10;63.40;;;;;;5037151;28;39009;-89
2020/12/30 07:14:13;;;;;;;8.13;6.47;;;0.20;63.50;;;;;;5040572;28;37788;-88
2020/12/30 07:16:41;;;;;;;8.40;6.07;;;0.10;63.30;;;;;;5036624;28;35906;-89
2020/12/30 07:19:16;;;;;;;7.70;5.70;;;0.10;63.50;;;;;;5022609;28;37894;-89
2020/12/30 07:22:01;;;;;;;7.07;5.20;;;0.20;63.70;;;;;;5039465;28;39803;-88
2020/12/30 07:24:32;;;;;;;6.17;5.20;;;0.30;63.70;;;;;;5027810;28;38210;-89
2020/12/30 07:27:02;;;;;;;7.43;5.93;;;0.30;63.40;;;;;;5018763;28;36040;-89
2020/12/30 07:29:30;;;;;;;6.60;5.17;;;0.40;63.90;;;;;;5036797;28;40171;-89
2020/12/30 07:32:00;;;;;;;7.30;5.90;;;0.40;63.90;;;;;;5036779;28;38602;-88
2020/12/30 07:34:28;;;;;;;7.20;4.93;;;0.60;64.10;;;;;;5027094;28;38464;-88
2020/12/30 07:36:55;;;;;;;11.60;5.90;;;0.80;64.20;;;;;;5029319;28;37215;-89
2020/12/30 07:39:28;;;;;;;9.07;5.60;;;1.00;64.00;;;;;;5037438;28;41098;-89
2020/12/30 07:41:57;;;;;;;6.57;5.17;;;1.10;64.20;;;;;;5034631;28;39286;-89
2020/12/30 07:44:27;;;;;;;7.07;4.90;;;1.20;63.50;;;;;;5018525;28;38044;-89
2020/12/30 07:47:01;;;;;;;6.23;4.57;;;1.30;63.40;;;;;;5035447;28;37843;-88
2020/12/30 07:49:28;;;;;;;5.37;4.50;;;1.50;63.40;;;;;;5020260;28;39300;-88
2020/12/30 07:51:56;;;;;;;6.20;4.17;;;1.60;63.00;;;;;;5043376;28;39441;-88
2020/12/30 07:54:25;;;;;;;8.73;4.73;;;1.80;62.70;;;;;;5050641;28;37975;-89
2020/12/30 07:57:00;;;;;;;9.17;4.53;;;1.90;62.40;;;;;;5048727;28;38073;-90
2020/12/30 07:59:27;;;;;;;9.77;4.03;;;2.00;62.10;;;;;;5036649;28;40160;-89
2020/12/30 08:01:58;;;;;;;5.83;3.80;;;2.00;61.80;;;;;;5017668;28;37986;-90
2020/12/30 08:04:27;;;;;;;6.80;3.87;;;2.10;61.70;;;;;;5021479;28;37940;-90
2020/12/30 08:06:55;;;;;;;4.23;2.83;;;2.20;61.20;;;;;;5027503;28;38598;-88
2020/12/30 08:09:28;;;;;;;3.63;3.27;;;2.20;61.10;;;;;;5030095;28;40054;-88
2020/12/30 08:11:56;;;;;;;2.97;2.33;;;2.30;60.40;;;;;;5044024;28;39547;-88
2020/12/30 08:14:26;;;;;;;4.17;3.20;;;2.30;60.00;;;;;;5043215;28;38404;-88
2020/12/30 08:16:58;;;;;;;4.03;2.83;;;2.30;59.60;;;;;;5015543;28;37995;-88
2020/12/30 08:19:35;;;;;;;2.90;2.40;;;2.30;59.40;;;;;;5019420;28;37964;-89
2020/12/30 08:22:04;;;;;;;3.97;3.10;;;2.20;58.90;;;;;;5038235;28;39876;-90
2020/12/30 08:24:32;;;;;;;4.93;4.27;;;2.10;58.60;;;;;;5035855;28;38702;-89
2020/12/30 08:26:59;;;;;;;7.50;5.40;;;2.10;58.60;;;;;;5034168;28;37531;-90
2020/12/30 08:29:31;;;;;;;6.23;5.00;;;2.10;58.50;;;;;;5017697;28;38613;-90
2020/12/30 08:32:01;;;;;;;6.70;4.90;;;2.00;58.50;;;;;;5035810;28;39838;-90
2020/12/30 08:34:44;;;;;;;6.23;4.50;;;2.00;58.80;;;;;;5030142;28;37157;-90
2020/12/30 08:37:15;;;;;;;6.27;5.10;;;2.10;58.90;;;;;;5021513;28;37805;-89
2020/12/30 08:39:51;;;;;;;6.63;4.70;;;2.30;59.10;;;;;;5047998;28;39782;-90
2020/12/30 08:42:59;;;;;;;6.40;4.60;;;2.60;59.20;;;;;;5019768;28;39284;-90
2020/12/30 08:45:28;;;;;;;6.00;4.97;;;2.90;59.10;;;;;;5023532;28;39363;-90
2020/12/30 08:47:57;;;;;;;6.03;5.10;;;3.30;58.80;;;;;;5045201;28;38737;-90
2020/12/30 08:50:27;;;;;;;5.67;4.40;;;3.60;58.00;;;;;;5038593;28;39879;-91
2020/12/30 08:52:55;;;;;;;5.00;4.40;;;3.90;57.60;;;;;;5035394;28;39040;-89
2020/12/30 08:55:22;;;;;;;10.63;5.20;;;4.30;56.60;;;;;;4994195;28;36448;-88
2020/12/30 08:57:50;;;;;;;6.73;4.30;;;4.60;55.70;;;;;;4998360;28;35885;-90
2020/12/30 09:00:18;;;;;;;5.60;4.77;;;4.80;54.70;;;;;;5036341;28;39775;-90
2020/12/30 09:02:47;;;;;;;9.57;6.30;;;4.90;53.70;;;;;;5045384;28;39478;-91
2020/12/30 09:05:25;;;;;;;8.47;4.53;;;5.10;53.30;;;;;;5051449;28;38850;-89
2020/12/30 09:07:52;;;;;;;11.73;4.93;;;5.10;52.60;;;;;;5043675;28;37467;-90
2020/12/30 09:10:20;;;;;;;6.37;4.47;;;5.20;52.00;;;;;;5023627;28;39066;-88
2020/12/30 09:12:49;;;;;;;8.43;5.10;;;5.30;51.60;;;;;;5051876;28;39672;-90
2020/12/30 09:15:16;;;;;;;5.43;4.67;;;5.30;51.70;;;;;;5041848;28;38518;-91
2020/12/30 09:17:44;;;;;;;5.70;4.07;;;5.30;51.20;;;;;;5023120;28;35740;-91
2020/12/30 09:20:14;;;;;;;6.53;4.37;;;5.40;51.50;;;;;;5034430;28;40402;-89
2020/12/30 09:22:43;;;;;;;6.50;3.57;;;5.40;51.40;;;;;;5037245;28;39709;-89
2020/12/30 09:25:24;;;;;;;4.53;3.80;;;5.60;51.10;;;;;;5017508;28;36369;-90
2020/12/30 09:27:52;;;;;;;3.93;2.70;;;5.80;50.50;;;;;;5034940;28;37562;-90
2020/12/30 09:30:20;;;;;;;3.70;3.13;;;5.90;49.70;;;;;;5036639;28;40549;-90
2020/12/30 09:32:50;;;;;;;4.10;3.27;;;6.00;49.40;;;;;;5034198;28;39265;-90
2020/12/30 09:35:18;;;;;;;3.50;2.87;;;6.00;49.20;;;;;;5035309;28;38164;-90
2020/12/30 09:37:54;;;;;;;3.77;3.37;;;6.10;49.00;;;;;;5034972;28;37175;-90
2020/12/30 09:40:21;;;;;;;4.80;3.27;;;6.30;48.50;;;;;;5034019;28;39177;-87
2020/12/30 09:42:49;;;;;;;4.47;2.97;;;6.30;48.10;;;;;;5013564;28;38882;-89
2020/12/30 09:45:20;;;;;;;4.83;3.20;;;6.40;48.20;;;;;;5035157;28;38394;-91
2020/12/30 09:47:49;;;;;;;3.10;2.73;;;6.50;48.00;;;;;;5032814;28;37766;-90
2020/12/30 09:50:18;;;;;;;7.10;3.53;;;6.60;47.70;;;;;;5035647;28;39913;-90
2020/12/30 09:52:46;;;;;;;4.03;2.80;;;6.80;47.30;;;;;;5029112;28;39294;-90
2020/12/30 09:55:15;;;;;;;4.20;3.60;;;7.00;47.50;;;;;;5024221;28;38130;-89
2020/12/30 09:57:42;;;;;;;4.60;3.50;;;7.50;47.30;;;;;;5022997;28;37342;-90
2020/12/30 10:00:10;;;;;;;5.40;3.27;;;8.20;46.70;;;;;;5033303;28;39703;-88
2020/12/30 10:02:37;;;;;;;5.30;4.20;;;9.10;44.50;;;;;;5033670;28;39134;-89
2020/12/30 10:05:06;;;;;;;3.93;3.27;;;9.80;42.50;;;;;;5032858;28;37994;-90
2020/12/30 10:07:38;;;;;;;3.30;2.60;;;10.10;40.30;;;;;;5035579;28;37370;-91
2020/12/30 10:10:05;;;;;;;3.93;2.90;;;9.90;40.60;;;;;;5036412;28;39717;-89
2020/12/30 10:12:37;;;;;;;5.43;2.60;;;9.70;40.40;;;;;;5032070;28;40104;-90
2020/12/30 10:15:05;;;;;;;5.57;2.80;;;9.30;40.60;;;;;;5032592;28;38468;-91
2020/12/30 10:17:32;;;;;;;3.50;2.60;;;8.90;41.40;;;;;;5035083;28;37079;-90
2020/12/30 10:19:59;;;;;;;4.50;3.10;;;8.60;42.00;;;;;;5035403;28;39805;-88
2020/12/30 10:22:33;;;;;;;4.73;2.20;;;8.20;43.10;;;;;;5017754;28;38530;-91
2020/12/30 10:25:00;;;;;;;5.23;2.83;;;7.90;43.00;;;;;;5020579;28;36631;-91
2020/12/30 10:27:45;;;;;;;4.97;2.80;;;7.70;43.40;;;;;;5070440;22;37427;-83
2020/12/30 10:30:12;;;;;;;4.67;2.80;;;7.50;43.90;;;;;;5037642;28;38301;-82
2020/12/30 10:32:42;;;;;;;5.50;2.30;;;7.40;44.40;;;;;;5052667;28;38954;-81
2020/12/30 10:35:40;;;;;;;4.07;2.50;;;7.40;44.60;;;;;;5051359;28;38044;-82
2020/12/30 10:38:07;;;;;;;3.63;2.90;;;7.50;44.10;;;;;;5030810;28;37630;-81
2020/12/30 10:40:41;;;;;;;3.73;2.60;;;7.60;44.00;;;;;;5047281;28;39312;-82
2020/12/30 10:43:09;;;;;;;5.87;3.40;;;7.80;44.10;;;;;;5035677;28;39305;-81
2020/12/30 10:45:40;;;;;;;5.07;2.83;;;8.00;43.90;;;;;;5054387;28;38261;-82
2020/12/30 10:48:07;;;;;;;4.13;3.10;;;8.10;43.40;;;;;;5041505;28;36757;-82
2020/12/30 10:50:53;;;;;;;5.43;3.23;;;8.30;43.60;;;;;;5053376;28;40093;-81
2020/12/30 10:53:20;;;;;;;3.90;3.27;;;8.60;43.20;;;;;;5061066;28;39144;-83
2020/12/30 10:55:47;;;;;;;4.17;3.10;;;9.00;43.00;;;;;;5055206;28;38900;-82
2020/12/30 10:58:16;;;;;;;6.00;3.77;;;9.40;42.40;;;;;;5048621;28;36828;-82
2020/12/30 11:00:44;;;;;;;3.90;3.17;;;9.80;41.10;;;;;;5050550;28;40515;-83
2020/12/30 11:03:11;;;;;;;5.50;3.13;;;9.90;40.30;;;;;;5055800;28;39484;-83
2020/12/30 11:05:40;;;;;;;6.30;3.70;;;9.80;40.10;;;;;;5052423;28;38268;-83
2020/12/30 11:08:07;;;;;;;5.20;3.33;;;9.70;40.70;;;;;;5052825;28;37795;-84
2020/12/30 11:10:34;;;;;;;6.90;4.20;;;9.70;41.00;;;;;;5035432;28;38656;-80
2020/12/30 11:13:01;;;;;;;9.50;3.10;;;9.60;40.90;;;;;;5055303;28;39212;-82
2020/12/30 11:15:28;;;;;;;4.47;2.93;;;9.50;40.80;;;;;;5051580;28;36745;-81
2020/12/30 11:17:59;;;;;;;4.97;3.40;;;9.30;41.00;;;;;;5054415;28;37901;-81
2020/12/30 11:20:26;;;;;;;5.20;3.40;;;9.20;41.50;;;;;;5054452;28;39495;-80
2020/12/30 11:22:53;;;;;;;5.17;3.80;;;9.10;42.10;;;;;;5054896;28;38837;-81
2020/12/30 11:25:20;;;;;;;4.57;3.13;;;9.10;42.30;;;;;;5036414;28;38538;-80
2020/12/30 11:27:47;;;;;;;4.30;2.80;;;9.10;42.10;;;;;;5053722;28;37176;-81
2020/12/30 11:30:16;;;;;;;3.87;3.00;;;9.10;42.00;;;;;;5054244;28;39802;-82
2020/12/30 11:32:44;;;;;;;3.70;3.00;;;9.10;42.00;;;;;;5034792;28;37580;-82
2020/12/30 11:35:12;;;;;;;5.00;3.20;;;9.00;41.80;;;;;;5052495;28;38194;-81
2020/12/30 11:37:39;;;;;;;5.87;3.60;;;9.00;41.60;;;;;;5042359;28;37744;-81
2020/12/30 11:40:06;;;;;;;5.30;3.33;;;9.00;41.90;;;;;;5035919;28;38342;-81
2020/12/30 11:42:33;;;;;;;5.17;3.40;;;8.80;41.80;;;;;;5053698;28;39130;-82
2020/12/30 11:45:00;;;;;;;5.73;3.63;;;8.70;41.80;;;;;;5050451;28;38856;-81
2020/12/30 11:47:28;;;;;;;6.87;3.50;;;8.70;42.40;;;;;;5048427;28;35953;-81
2020/12/30 11:49:54;;;;;;;6.27;3.57;;;8.60;42.60;;;;;;5053200;28;39942;-82
2020/12/30 11:52:22;;;;;;;5.70;4.47;;;8.50;43.10;;;;;;5051850;28;38703;-82
2020/12/30 11:54:49;;;;;;;5.80;3.60;;;8.60;43.30;;;;;;5052248;28;36913;-81
2020/12/30 11:57:16;;;;;;;7.40;5.60;;;8.60;43.10;;;;;;5043861;28;36196;-82
2020/12/30 11:59:44;;;;;;;7.10;4.10;;;8.60;43.00;;;;;;5045522;28;40560;-81
2020/12/30 12:02:11;;;;;;;7.23;3.47;;;8.70;43.00;;;;;;5039417;28;37701;-81
2020/12/30 12:04:38;;;;;;;5.83;3.60;;;8.60;43.00;;;;;;5048281;28;38248;-82
2020/12/30 12:07:07;;;;;;;3.93;3.23;;;8.60;43.00;;;;;;5050240;28;37537;-81
2020/12/30 12:09:35;;;;;;;4.47;3.43;;;8.60;43.10;;;;;;5050355;28;40746;-81
2020/12/30 12:12:05;;;;;;;5.27;3.07;;;8.60;43.10;;;;;;5053129;28;40020;-81
2020/12/30 12:14:32;;;;;;;5.67;3.33;;;8.60;43.90;;;;;;5034301;28;36652;-81
2020/12/30 12:16:59;;;;;;;4.70;3.13;;;8.60;43.30;;;;;;5051090;28;37726;-80
2020/12/30 12:19:32;;;;;;;3.93;3.20;;;8.60;43.30;;;;;;5030396;28;38753;-81
2020/12/30 12:21:59;;;;;;;10.37;4.60;;;8.50;43.50;;;;;;5044386;28;39118;-80
2020/12/30 12:24:26;;;;;;;6.90;4.10;;;8.50;43.80;;;;;;5050133;28;38369;-80
2020/12/30 12:26:54;;;;;;;4.10;3.70;;;8.40;44.30;;;;;;5052312;28;37046;-80
2020/12/30 12:29:44;;;;;;;5.13;3.70;;;8.40;44.30;;;;;;5049680;28;39317;-80
2020/12/30 12:32:12;;;;;;;3.40;2.50;;;8.30;44.20;;;;;;5046669;28;38248;-80
2020/12/30 12:34:41;;;;;;;4.23;2.93;;;8.20;44.80;;;;;;5047007;28;38456;-81
2020/12/30 12:37:09;;;;;;;3.43;2.03;;;8.20;44.10;;;;;;5050028;28;37109;-80
2020/12/30 12:39:38;;;;;;;4.80;1.93;;;8.00;43.60;;;;;;5051612;28;39186;-81
2020/12/30 12:42:06;;;;;;;1.97;1.57;;;7.80;43.80;;;;;;5049112;28;36346;-80
2020/12/30 12:44:36;;;;;;;2.00;1.40;;;7.70;44.00;;;;;;5026919;28;36897;-81
2020/12/30 12:47:06;;;;;;;3.67;1.60;;;7.60;43.90;;;;;;5035998;28;36313;-82
2020/12/30 12:49:33;;;;;;;3.20;1.63;;;7.40;44.10;;;;;;5052191;28;39788;-81
2020/12/30 12:52:00;;;;;;;3.40;1.67;;;7.40;44.40;;;;;;5051264;28;39123;-81
2020/12/30 12:54:29;;;;;;;5.30;2.10;;;7.30;44.70;;;;;;5045754;28;39317;-81
2020/12/30 12:56:57;;;;;;;4.20;2.20;;;7.30;44.40;;;;;;5033494;28;37401;-82
2020/12/30 12:59:28;;;;;;;5.80;2.27;;;7.30;45.00;;;;;;5038787;28;39855;-81
2020/12/30 13:01:56;;;;;;;2.13;1.60;;;7.20;45.10;;;;;;5044673;28;39277;-81
2020/12/30 13:04:24;;;;;;;4.17;1.77;;;7.40;45.30;;;;;;5051687;28;37684;-82
2020/12/30 13:06:53;;;;;;;3.07;2.07;;;7.40;45.00;;;;;;5035004;28;37050;-82
2020/12/30 13:09:20;;;;;;;8.43;1.70;;;7.50;44.80;;;;;;5027355;28;38359;-82
2020/12/30 13:11:51;;;;;;;4.70;1.73;;;7.60;44.60;;;;;;5049501;28;38845;-81
2020/12/30 13:14:20;;;;;;;5.17;2.00;;;7.60;44.40;;;;;;5046289;28;36768;-81
2020/12/30 13:16:51;;;;;;;3.43;1.87;;;7.70;44.50;;;;;;5046431;28;38557;-81
2020/12/30 13:19:47;;;;;;;3.30;2.20;;;7.80;44.20;;;;;;5051003;28;40177;-83
2020/12/30 13:22:13;;;;;;;3.47;2.00;;;7.70;43.90;;;;;;5035729;28;39797;-81
2020/12/30 13:24:40;;;;;;;2.47;1.70;;;7.80;44.20;;;;;;5051051;28;38042;-81
2020/12/30 13:27:10;;;;;;;3.10;1.70;;;7.70;43.80;;;;;;5050080;28;37203;-81
2020/12/30 13:29:44;;;;;;;3.70;2.20;;;7.60;44.30;;;;;;5033559;28;39921;-81
2020/12/30 13:32:12;;;;;;;3.00;1.90;;;7.60;44.30;;;;;;5049906;28;39223;-79
2020/12/30 13:34:39;;;;;;;2.63;1.73;;;7.60;44.30;;;;;;5047759;28;37048;-79
2020/12/30 13:37:15;;;;;;;2.60;2.00;;;7.60;44.30;;;;;;5050822;28;37142;-79
2020/12/30 13:39:45;;;;;;;2.00;1.70;;;7.60;44.50;;;;;;5051648;28;40164;-79
2020/12/30 13:42:15;;;;;;;2.37;1.47;;;7.70;44.50;;;;;;5033883;28;37828;-79
2020/12/30 13:44:52;;;;;;;4.87;1.93;;;7.60;44.20;;;;;;5049334;28;37664;-80
2020/12/30 13:47:20;;;;;;;6.80;2.37;;;7.60;44.00;;;;;;5049855;28;37224;-79
2020/12/30 13:49:47;;;;;;;3.63;2.20;;;7.50;44.40;;;;;;5051997;28;40406;-78
2020/12/30 13:52:17;;;;;;;4.53;1.80;;;7.50;44.50;;;;;;5050142;28;39354;-78
2020/12/30 13:54:44;;;;;;;2.00;1.60;;;7.50;44.40;;;;;;5047493;28;38280;-81
2020/12/30 13:57:11;;;;;;;2.20;1.60;;;7.40;44.20;;;;;;5048241;28;37471;-80
2020/12/30 13:59:38;;;;;;;4.13;2.00;;;7.30;44.80;;;;;;5049809;28;38072;-80